Time;durP1;ratioP1;P1;durP2;ratioP2;P2;SDS_P1;SDS_P2;PMS_P1;PMS_P2;Temp;Humidity;BMP_temperature;BMP_pressure;BME280_temperature;BME280_humidity;BME280_pressure;Samples;Min_cycle;Max_cycle;Signal;HPM_P1;HPM_P2
2021/05/27 00:00:16;;;;;;;8.13;4.28;;;;;;;11.44;72.18;100230.03;5056232;28;20072;-75
2021/05/27 00:02:44;;;;;;;9.38;4.65;;;;;;;11.65;70.93;100229.63;5056078;28;20124;-75
2021/05/27 00:05:13;;;;;;;8.45;4.18;;;;;;;11.57;70.61;100227.44;5055986;28;20045;-77
2021/05/27 00:07:41;;;;;;;10.95;4.18;;;;;;;11.50;70.42;100222.59;5055578;28;20048;-74
2021/05/27 00:10:14;;;;;;;9.25;3.80;;;;;;;11.51;70.08;100214.50;5055766;28;20041;-77
2021/05/27 00:12:43;;;;;;;;;;;;;;;11.45;69.27;100221.06;5055964;28;20053;-77
2021/05/27 00:15:13;;;;;;;9.60;3.65;;;;;;;11.41;69.82;100218.72;5055863;28;19921;-77
2021/05/27 00:17:41;;;;;;;9.70;3.80;;;;;;;11.47;69.43;100220.97;5055431;28;20131;-77
2021/05/27 00:20:11;;;;;;;8.65;3.63;;;;;;;11.15;70.61;100220.34;5055588;28;20545;-75
2021/05/27 00:22:39;;;;;;;6.72;3.50;;;;;;;11.26;70.32;100217.84;5055207;28;20498;-75
2021/05/27 00:25:10;;;;;;;9.63;4.32;;;;;;;11.30;70.00;100219.41;5055705;28;20103;-75
2021/05/27 00:27:40;;;;;;;12.20;4.03;;;;;;;11.29;70.24;100211.47;5055211;28;20053;-74
2021/05/27 00:30:10;;;;;;;8.48;3.50;;;;;;;11.38;70.06;100217.06;5055471;28;20087;-75
2021/05/27 00:32:38;;;;;;;6.88;3.63;;;;;;;11.19;71.11;100227.22;5055224;28;20045;-77
2021/05/27 00:35:08;;;;;;;11.18;4.13;;;;;;;11.06;71.71;100212.94;5055350;28;20498;-75
2021/05/27 00:37:36;;;;;;;8.55;3.85;;;;;;;11.06;73.48;100220.94;5055248;28;20401;-75
2021/05/27 00:40:06;;;;;;;7.50;3.78;;;;;;;10.83;74.80;100223.22;5055467;28;20541;-76
2021/05/27 00:42:34;;;;;;;9.23;4.25;;;;;;;10.73;76.17;100216.75;5054842;28;20407;-74
2021/05/27 00:45:05;;;;;;;10.90;4.25;;;;;;;10.55;77.06;100221.38;5054291;28;20442;-76
2021/05/27 00:47:34;;;;;;;9.25;4.20;;;;;;;10.43;77.69;100222.13;5054698;28;20088;-76
2021/05/27 00:50:03;;;;;;;9.73;4.20;;;;;;;10.62;76.67;100215.69;5055242;28;20128;-75
2021/05/27 00:52:31;;;;;;;8.88;3.70;;;;;;;10.90;74.64;100218.34;5054810;28;20478;-77
2021/05/27 00:55:01;;;;;;;6.43;3.80;;;;;;;10.93;74.43;100215.50;5055287;28;20044;-75
2021/05/27 00:57:34;;;;;;;9.25;4.10;;;;;;;10.95;74.39;100212.75;5054971;28;20489;-80
2021/05/27 01:00:06;;;;;;;8.68;4.57;;;;;;;10.76;75.18;100219.22;5055105;28;20045;-77
2021/05/27 01:02:35;;;;;;;7.90;4.00;;;;;;;10.84;74.89;100210.75;5054944;28;20398;-77
2021/05/27 01:05:05;;;;;;;7.63;3.80;;;;;;;10.85;74.65;100224.00;5055173;28;20049;-79
2021/05/27 01:07:34;;;;;;;7.85;3.53;;;;;;;10.73;74.68;100214.06;5054898;28;20045;-80
2021/05/27 01:10:03;;;;;;;6.82;3.38;;;;;;;10.74;74.92;100221.13;5054228;28;20041;-79
2021/05/27 01:12:31;;;;;;;8.07;4.03;;;;;;;10.62;75.37;100216.56;5054314;28;20482;-79
2021/05/27 01:17:47;;;;;;;7.65;3.35;;;;;;;10.61;75.65;100212.13;5062573;28;20041;-78
2021/05/27 01:20:15;;;;;;;9.88;3.80;;;;;;;10.59;75.81;100214.03;5059007;28;20076;-76
2021/05/27 01:22:44;;;;;;;5.80;3.28;;;;;;;10.57;76.13;100215.94;5054861;28;20037;-76
2021/05/27 01:25:14;;;;;;;6.38;3.50;;;;;;;10.68;75.76;100215.28;5053973;28;20098;-75
2021/05/27 01:27:42;;;;;;;8.68;3.67;;;;;;;10.74;75.50;100218.47;5054673;28;20048;-78
2021/05/27 01:30:11;;;;;;;7.13;3.55;;;;;;;10.58;76.07;100210.53;5054860;28;20056;-78
2021/05/27 01:32:39;;;;;;;7.38;3.60;;;;;;;10.54;76.30;100202.81;5054274;28;20048;-77
2021/05/27 01:35:14;;;;;;;8.98;3.60;;;;;;;10.52;76.14;100212.72;5054281;28;20574;-77
2021/05/27 01:37:44;;;;;;;7.78;3.60;;;;;;;10.54;75.95;100210.81;5054229;28;20058;-77
2021/05/27 01:40:14;;;;;;;7.78;3.50;;;;;;;10.61;75.38;100212.13;5053089;28;20556;-77
2021/05/27 01:42:42;;;;;;;5.82;3.00;;;;;;;10.57;76.19;100219.47;5053694;28;20049;-77
2021/05/27 01:45:11;;;;;;;10.10;3.15;;;;;;;10.65;76.13;100205.69;5054420;28;20401;-77
2021/05/27 01:47:39;;;;;;;9.32;3.63;;;;;;;10.60;76.14;100205.09;5053733;28;20041;-77
2021/05/27 01:50:10;;;;;;;7.53;3.17;;;;;;;10.57;76.18;100207.94;5053907;28;20057;-76
2021/05/27 01:52:38;;;;;;;6.53;3.38;;;;;;;10.42;77.61;100208.88;5053451;28;20133;-76
2021/05/27 01:55:08;;;;;;;10.20;3.88;;;;;;;10.29;78.71;100204.28;5053991;28;20087;-76
2021/05/27 01:57:36;;;;;;;11.93;3.95;;;;;;;10.29;79.33;100206.94;5053582;28;20045;-76
2021/05/27 02:00:07;;;;;;;9.07;3.72;;;;;;;10.43;78.06;100215.94;5054058;28;20389;-76
2021/05/27 02:02:35;;;;;;;5.97;3.40;;;;;;;10.45;77.87;100219.38;5053476;28;20048;-76
2021/05/27 02:05:04;;;;;;;8.65;3.72;;;;;;;10.51;77.55;100208.31;5053928;28;20033;-76
2021/05/27 02:07:32;;;;;;;7.15;3.80;;;;;;;10.39;77.78;100209.91;5053554;28;20485;-76
2021/05/27 02:10:00;;;;;;;10.20;3.92;;;;;;;10.22;78.48;100199.41;5052364;28;20504;-76
2021/05/27 02:12:29;;;;;;;10.10;4.03;;;;;;;10.12;79.53;100203.53;5053224;28;20037;-76
2021/05/27 02:14:57;;;;;;;9.73;4.05;;;;;;;10.24;78.81;100200.19;5053442;28;20045;-75
2021/05/27 02:17:25;;;;;;;8.43;3.60;;;;;;;10.22;78.54;100202.91;5053606;28;20045;-75
2021/05/27 02:19:55;;;;;;;9.55;4.22;;;;;;;10.25;78.44;100208.09;5053565;28;20053;-75
2021/05/27 02:22:23;;;;;;;8.43;4.00;;;;;;;10.28;78.18;100202.56;5052402;28;20067;-75
2021/05/27 02:24:51;;;;;;;7.30;3.92;;;;;;;10.25;78.50;100205.41;5053052;28;20037;-73
2021/05/27 02:27:20;;;;;;;7.85;3.85;;;;;;;10.10;79.02;100206.28;5053236;28;20061;-73
2021/05/27 02:29:49;;;;;;;7.93;3.90;;;;;;;10.09;79.27;100206.38;5052887;28;20847;-73
2021/05/27 02:32:17;;;;;;;8.02;3.78;;;;;;;10.15;78.64;100203.38;5053302;28;20509;-77
2021/05/27 02:34:45;;;;;;;8.70;4.30;;;;;;;10.16;79.13;100203.28;5053005;28;20036;-77
2021/05/27 02:37:13;;;;;;;7.32;4.35;;;;;;;10.15;78.92;100195.38;5053241;28;20051;-77
2021/05/27 02:39:41;;;;;;;9.18;4.25;;;;;;;10.10;79.11;100192.97;5052935;28;20128;-77
2021/05/27 02:42:10;;;;;;;10.38;4.30;;;;;;;9.96;79.84;100190.25;5053102;28;20402;-80
2021/05/27 02:44:38;;;;;;;7.72;4.38;;;;;;;9.93;80.54;100199.28;5052821;28;20065;-80
2021/05/27 02:47:06;;;;;;;10.27;4.43;;;;;;;9.75;81.85;100198.56;5053455;28;20072;-80
2021/05/27 02:49:34;;;;;;;7.60;4.00;;;;;;;9.59;83.27;100202.19;5052805;28;20049;-80
2021/05/27 02:52:02;;;;;;;10.23;3.85;;;;;;;9.68;83.17;100196.31;5053055;28;20083;-82
2021/05/27 02:54:30;;;;;;;9.18;4.38;;;;;;;9.86;82.18;100189.09;5053064;28;20037;-80
2021/05/27 02:56:59;;;;;;;9.80;4.05;;;;;;;9.77;82.53;100197.59;5052846;28;20128;-82
2021/05/27 02:59:28;;;;;;;6.20;3.80;;;;;;;9.84;82.59;100185.63;5053223;28;20045;-76
2021/05/27 03:01:56;;;;;;;7.65;4.30;;;;;;;9.88;82.13;100184.53;5052870;28;20488;-77
2021/05/27 03:04:24;;;;;;;8.43;4.13;;;;;;;9.96;81.86;100193.78;5053122;28;20098;-75
2021/05/27 03:06:53;;;;;;;7.80;4.10;;;;;;;10.15;80.15;100190.91;5052410;28;20128;-77
2021/05/27 03:09:21;;;;;;;7.68;4.43;;;;;;;10.00;80.58;100191.78;5053068;28;20471;-73
2021/05/27 03:11:53;;;;;;;12.45;4.28;;;;;;;9.72;83.13;100193.38;5052467;28;20113;-77
2021/05/27 03:14:21;;;;;;;11.20;4.45;;;;;;;9.79;82.54;100193.03;5052908;28;20041;-78
2021/05/27 03:16:48;;;;;;;6.95;4.13;;;;;;;9.88;82.64;100187.19;5052414;28;20076;-76
2021/05/27 03:19:16;;;;;;;9.48;4.22;;;;;;;10.12;81.05;100191.06;5052606;28;20049;-74
2021/05/27 03:21:47;;;;;;;10.55;3.85;;;;;;;10.20;80.50;100188.78;5052223;28;20478;-75
2021/05/27 03:24:15;;;;;;;9.10;4.53;;;;;;;10.06;80.80;100188.78;5051331;28;20048;-75
2021/05/27 03:26:42;;;;;;;8.52;4.22;;;;;;;10.18;80.44;100190.69;5052477;28;20548;-74
2021/05/27 03:29:13;;;;;;;9.82;4.55;;;;;;;10.20;80.34;100199.47;5052642;28;20106;-74
2021/05/27 03:31:41;;;;;;;8.50;3.70;;;;;;;10.34;80.14;100219.16;5052171;28;20045;-77
2021/05/27 03:34:09;;;;;;;9.07;4.15;;;;;;;10.28;80.39;100207.03;5055359;28;20135;-77
2021/05/27 03:36:39;;;;;;;7.53;3.60;;;;;;;10.59;78.57;100200.72;5056136;28;20068;-76
2021/05/27 03:39:08;;;;;;;9.55;3.97;;;;;;;11.01;76.58;100201.69;5056594;28;20041;-76
2021/05/27 03:41:36;;;;;;;10.07;3.33;;;;;;;11.60;72.92;100205.88;5056112;28;20045;-76
2021/05/27 03:44:04;;;;;;;9.35;3.70;;;;;;;12.58;69.05;100194.81;5056309;28;20053;-75
2021/05/27 03:46:32;;;;;;;7.72;3.30;;;;;;;14.06;63.56;100187.72;5056210;28;20045;-76
2021/05/27 03:49:00;;;;;;;5.65;3.15;;;;;;;15.07;59.76;100194.19;5056458;28;20037;-75
2021/05/27 03:51:30;;;;;;;8.02;3.38;;;;;;;14.99;59.39;100199.31;5056457;28;20083;-76
2021/05/27 03:53:59;;;;;;;7.22;3.35;;;;;;;15.55;57.60;100196.59;5056275;28;20084;-77
2021/05/27 03:56:28;;;;;;;11.40;3.75;;;;;;;16.34;54.86;100194.50;5056082;28;20045;-76
2021/05/27 04:01:42;;;;;;;9.55;3.58;;;;;;;17.53;50.62;100187.59;5056036;28;20052;-75
2021/05/27 04:09:46;;;;;;;7.90;3.30;;;;;;;17.90;49.52;100184.28;5055584;28;20044;-77
2021/05/27 04:17:45;;;;;;;9.80;3.70;;;;;;;18.16;47.95;100189.97;5048539;28;20051;-76
2021/05/27 04:20:14;;;;;;;7.85;3.70;;;;;;;18.74;46.23;100187.22;5055992;28;20095;-75
2021/05/27 04:22:43;;;;;;;8.40;3.50;;;;;;;18.87;45.68;100185.91;5055503;28;20053;-75
2021/05/27 04:25:13;;;;;;;11.15;4.32;;;;;;;18.71;46.63;100182.94;5055527;28;20541;-71
2021/05/27 04:27:42;;;;;;;8.60;3.67;;;;;;;19.13;45.69;100190.66;5055603;28;20393;-76
2021/05/27 04:30:15;;;;;;;10.13;3.85;;;;;;;20.00;43.01;100191.03;5055459;28;20107;-76
2021/05/27 04:32:55;;;;;;;9.40;3.65;;;;;;;20.49;41.51;100191.47;5055178;28;20096;-77
2021/05/27 04:35:26;;;;;;;6.78;3.13;;;;;;;20.69;40.22;100186.72;5056277;28;20060;-77
2021/05/27 04:37:54;;;;;;;7.10;3.13;;;;;;;20.90;40.26;100189.06;5055623;28;20049;-75
2021/05/27 04:40:24;;;;;;;5.72;2.97;;;;;;;20.35;41.22;100194.72;5060849;28;20051;-76
2021/05/27 04:42:52;;;;;;;8.48;2.97;;;;;;;20.31;40.64;100198.75;5055273;28;20604;-76
2021/05/27 04:45:21;;;;;;;6.95;3.55;;;;;;;20.60;40.33;100193.09;5054483;28;20049;-76
2021/05/27 04:47:50;;;;;;;7.85;3.30;;;;;;;20.85;40.32;100191.41;5054904;28;20049;-77
2021/05/27 04:50:18;;;;;;;5.38;2.92;;;;;;;20.58;40.09;100201.38;5055226;28;20041;-76
2021/05/27 04:52:49;;;;;;;9.70;3.30;;;;;;;21.11;39.48;100197.63;5054884;28;20394;-77
2021/05/27 04:55:19;;;;;;;6.45;2.65;;;;;;;21.17;39.37;100193.44;5055103;28;20067;-76
2021/05/27 04:57:48;;;;;;;8.35;3.10;;;;;;;21.13;39.43;100192.03;5054737;28;20049;-78
2021/05/27 05:00:19;;;;;;;8.48;3.25;;;;;;;21.58;38.51;100190.94;5055227;28;20044;-76
2021/05/27 05:02:50;;;;;;;7.75;2.95;;;;;;;22.13;36.80;100193.97;5054809;28;20057;-77
2021/05/27 05:05:21;;;;;;;6.65;2.72;;;;;;;21.73;37.43;100193.88;5054774;28;20057;-77
2021/05/27 05:07:49;;;;;;;9.45;3.00;;;;;;;21.49;37.66;100184.63;5054497;28;20040;-75
2021/05/27 05:10:19;;;;;;;7.28;3.05;;;;;;;22.01;37.24;100195.28;5054825;28;20489;-74
2021/05/27 05:12:47;;;;;;;7.82;2.80;;;;;;;22.08;36.68;100200.91;5053712;28;20437;-73
2021/05/27 05:15:16;;;;;;;6.95;2.83;;;;;;;21.87;37.03;100198.63;5054853;28;20048;-75
2021/05/27 05:17:48;;;;;;;6.57;2.60;;;;;;;22.04;36.82;100197.66;5054467;28;20045;-80
2021/05/27 05:20:19;;;;;;;5.53;2.70;;;;;;;22.40;36.70;100194.69;5054685;28;20048;-77
2021/05/27 05:22:48;;;;;;;6.38;2.80;;;;;;;22.32;36.19;100197.38;5053077;28;20053;-74
2021/05/27 05:25:16;;;;;;;7.18;2.80;;;;;;;22.55;35.95;100192.97;5054590;28;20037;-73
2021/05/27 05:27:45;;;;;;;8.38;2.90;;;;;;;22.77;35.67;100196.84;5054457;28;20041;-74
2021/05/27 05:30:15;;;;;;;7.45;3.10;;;;;;;22.95;35.92;100199.38;5054536;28;20386;-74
2021/05/27 05:32:44;;;;;;;8.57;3.20;;;;;;;22.82;35.88;100189.88;5053303;28;20045;-75
2021/05/27 05:35:14;;;;;;;9.45;3.40;;;;;;;22.63;35.87;100198.38;5048687;28;20068;-73
2021/05/27 05:37:43;;;;;;;6.45;3.20;;;;;;;23.46;35.08;100198.06;5053798;28;20072;-77
2021/05/27 05:40:14;;;;;;;7.95;3.30;;;;;;;23.63;34.78;100194.22;5048344;28;20857;-77
2021/05/27 05:42:44;;;;;;;6.05;3.03;;;;;;;23.88;33.92;100197.69;5052445;28;20048;-78
2021/05/27 05:45:14;;;;;;;8.75;3.20;;;;;;;24.06;33.70;100199.28;5052582;28;20510;-76
2021/05/27 05:47:44;;;;;;;7.35;3.40;;;;;;;24.73;33.13;100192.09;5051818;28;20122;-73
2021/05/27 05:50:44;;;;;;;;;;;;;;;24.78;32.34;100197.00;5053610;28;20436;-74
2021/05/27 05:53:04;;;;;;;8.70;3.50;;;;;;;24.58;33.18;100190.38;5052874;28;19951;-77
2021/05/27 05:55:33;;;;;;;8.40;2.92;;;;;;;24.85;32.47;100195.22;5052844;28;20123;-71
2021/05/27 05:58:02;;;;;;;8.40;2.97;;;;;;;25.45;31.39;100190.66;5052791;28;20484;-76
2021/05/27 06:00:30;;;;;;;7.07;2.90;;;;;;;26.02;29.54;100192.63;5052972;28;20501;-76
2021/05/27 06:02:58;;;;;;;7.90;2.70;;;;;;;25.77;30.91;100189.38;5052450;28;20144;-77
2021/05/27 06:05:27;;;;;;;8.45;3.10;;;;;;;26.12;30.61;100196.72;5052398;28;20570;-75
2021/05/27 06:07:56;;;;;;;6.53;2.85;;;;;;;26.14;30.06;100210.19;5052736;28;20041;-78
2021/05/27 06:10:24;;;;;;;6.70;2.97;;;;;;;25.87;30.16;100207.19;5052414;28;20068;-78
2021/05/27 06:12:53;;;;;;;10.05;3.28;;;;;;;25.83;28.89;100202.28;5051225;28;20143;-77
2021/05/27 06:15:21;;;;;;;6.85;3.25;;;;;;;25.73;30.98;100199.03;5052496;28;20435;-79
2021/05/27 06:17:56;;;;;;;6.65;3.28;;;;;;;26.30;28.77;100195.44;5052618;28;20383;-78
2021/05/27 06:20:27;;;;;;;8.90;3.30;;;;;;;26.62;29.16;100194.06;5051520;28;20060;-73
2021/05/27 06:22:55;;;;;;;7.95;2.90;;;;;;;26.58;27.83;100192.78;5052379;28;20041;-81
2021/05/27 06:25:26;;;;;;;10.68;3.65;;;;;;;26.18;28.54;100198.69;5052436;28;20402;-82
2021/05/27 06:27:54;;;;;;;7.68;3.53;;;;;;;26.34;29.42;100185.78;5052613;28;20041;-75
2021/05/27 06:30:25;;;;;;;8.52;3.10;;;;;;;26.43;28.91;100187.38;5052162;28;20056;-76
2021/05/27 06:32:53;;;;;;;9.40;3.92;;;;;;;26.79;27.66;100188.09;5050362;28;20131;-77
2021/05/27 06:35:21;;;;;;;11.35;4.00;;;;;;;27.31;27.41;100177.72;5052153;28;20430;-78
2021/05/27 06:37:53;;;;;;;9.85;4.00;;;;;;;27.52;26.36;100177.63;5052095;28;20080;-77
2021/05/27 06:40:24;;;;;;;8.88;3.75;;;;;;;27.56;25.85;100180.78;5052171;28;20446;-77
2021/05/27 06:42:53;;;;;;;6.85;3.25;;;;;;;27.60;26.37;100179.31;5051919;28;20071;-77
2021/05/27 06:45:22;;;;;;;10.00;2.55;;;;;;;27.26;25.31;100183.81;5052084;28;20069;-77
2021/05/27 06:47:51;;;;;;;4.35;1.85;;;;;;;26.98;24.17;100183.81;5051865;28;20051;-77
2021/05/27 06:50:32;;;;;;;6.38;2.05;;;;;;;26.70;24.67;100188.47;5051944;28;20051;-77
2021/05/27 06:53:02;;;;;;;6.47;2.10;;;;;;;26.51;26.08;100181.78;5052022;28;20041;-74
2021/05/27 06:55:30;;;;;;;4.88;1.90;;;;;;;25.55;26.10;100183.84;5051913;28;20051;-77
2021/05/27 06:57:58;;;;;;;4.47;2.00;;;;;;;24.42;27.65;100194.94;5052122;28;20045;-74
2021/05/27 07:00:28;;;;;;;3.85;1.67;;;;;;;24.21;29.28;100198.28;5052019;28;20040;-77
2021/05/27 07:02:56;;;;;;;5.40;2.20;;;;;;;23.30;29.82;100196.22;5051436;28;20132;-77
2021/05/27 07:05:25;;;;;;;6.15;2.20;;;;;;;23.40;30.54;100188.69;5051480;28;20045;-77
2021/05/27 07:07:53;;;;;;;6.88;2.08;;;;;;;23.40;31.04;100188.69;5051463;28;20053;-78
2021/05/27 07:10:21;;;;;;;6.03;2.50;;;;;;;23.18;32.28;100197.63;5050788;28;20061;-77
2021/05/27 07:12:52;;;;;;;7.45;2.67;;;;;;;23.31;32.37;100199.81;5051139;28;20040;-77
2021/05/27 07:15:22;;;;;;;4.95;2.28;;;;;;;23.16;32.84;100196.94;5051383;28;20124;-77
2021/05/27 07:17:51;;;;;;;5.75;2.50;;;;;;;22.70;33.39;100193.97;5051880;28;20052;-76
2021/05/27 07:20:22;;;;;;;6.55;2.47;;;;;;;22.53;33.60;100195.84;5051806;28;20437;-76
2021/05/27 07:22:52;;;;;;;5.65;2.50;;;;;;;22.30;33.93;100191.28;5052027;28;20044;-77
2021/05/27 07:25:21;;;;;;;8.43;2.75;;;;;;;22.05;34.92;100201.22;5051390;28;20393;-76
2021/05/27 07:27:51;;;;;;;7.60;2.70;;;;;;;22.11;33.17;100187.88;5051780;28;20461;-78
2021/05/27 07:30:21;;;;;;;5.78;2.55;;;;;;;21.91;33.94;100189.16;5051973;28;20397;-75
2021/05/27 07:32:49;;;;;;;6.90;2.25;;;;;;;21.92;33.72;100190.88;5051230;28;20052;-75
2021/05/27 07:35:17;;;;;;;4.88;2.33;;;;;;;21.75;33.63;100191.84;5051639;28;20095;-74
2021/05/27 07:37:46;;;;;;;7.20;2.35;;;;;;;21.73;34.71;100192.00;5051285;28;20148;-74
2021/05/27 07:40:14;;;;;;;7.60;2.00;;;;;;;21.85;33.19;100189.81;5051190;28;20124;-76
2021/05/27 07:42:42;;;;;;;4.80;2.42;;;;;;;21.50;33.94;100194.47;5051247;28;20037;-79
2021/05/27 07:45:12;;;;;;;5.75;1.60;;;;;;;21.60;33.00;100187.03;5051609;28;20072;-71
2021/05/27 07:47:41;;;;;;;5.68;1.83;;;;;;;21.54;33.39;100181.44;5051104;28;20057;-79
2021/05/27 07:50:12;;;;;;;7.75;2.20;;;;;;;21.27;34.26;100180.63;5051358;28;20524;-75
2021/05/27 07:52:40;;;;;;;6.53;2.17;;;;;;;21.25;35.07;100187.22;5051072;28;20224;-75
2021/05/27 07:55:10;;;;;;;4.53;1.90;;;;;;;21.33;34.95;100185.44;5051647;28;20052;-77
2021/05/27 07:57:38;;;;;;;6.32;1.88;;;;;;;21.14;35.33;100181.06;5052121;28;20045;-80
2021/05/27 08:00:08;;;;;;;6.88;2.13;;;;;;;21.12;35.18;100182.22;5051993;28;20065;-75
2021/05/27 08:02:37;;;;;;;5.50;2.10;;;;;;;21.11;35.75;100180.53;5060798;28;20037;-75
2021/05/27 08:05:06;;;;;;;7.35;1.92;;;;;;;21.18;35.75;100180.72;5065935;28;20410;-74
2021/05/27 08:07:34;;;;;;;6.70;1.77;;;;;;;21.11;35.74;100177.81;5052834;28;20045;-74
2021/05/27 08:10:04;;;;;;;5.43;1.70;;;;;;;21.33;36.32;100179.16;5051436;28;20069;-75
2021/05/27 08:12:32;;;;;;;3.80;1.65;;;;;;;21.27;36.73;100171.66;5051371;28;20485;-76
2021/05/27 08:15:01;;;;;;;4.78;1.95;;;;;;;21.32;36.90;100175.56;5051003;28;20065;-74
2021/05/27 08:17:30;;;;;;;5.40;2.00;;;;;;;21.48;36.75;100174.78;5050973;28;20500;-75
2021/05/27 08:19:58;;;;;;;6.22;1.92;;;;;;;21.53;37.43;100177.88;5051983;28;20512;-77
2021/05/27 08:22:27;;;;;;;7.20;1.90;;;;;;;21.62;36.56;100182.31;5054719;28;20641;-75
2021/05/27 08:24:57;;;;;;;6.38;1.80;;;;;;;21.60;36.57;100175.31;5054903;28;20065;-74
2021/05/27 08:27:25;;;;;;;4.82;2.00;;;;;;;21.70;36.77;100174.16;5054774;28;20727;-78
2021/05/27 08:29:53;;;;;;;6.43;1.95;;;;;;;21.70;36.13;100174.16;5054725;28;20544;-76
2021/05/27 08:32:22;;;;;;;4.70;1.65;;;;;;;21.52;36.05;100173.47;5054602;28;20082;-76
2021/05/27 08:34:50;;;;;;;4.15;1.63;;;;;;;21.49;36.10;100179.19;5054055;28;20041;-76
2021/05/27 08:37:19;;;;;;;6.13;2.00;;;;;;;21.61;36.37;100183.28;5054547;28;20041;-74
2021/05/27 08:39:48;;;;;;;5.72;1.83;;;;;;;21.60;36.85;100178.88;5054571;28;20121;-75
2021/05/27 08:42:16;;;;;;;4.63;1.60;;;;;;;21.49;35.92;100176.47;5055532;28;20052;-75
2021/05/27 08:44:47;;;;;;;4.70;1.63;;;;;;;21.54;37.84;100176.84;5057529;28;20053;-76
2021/05/27 08:47:16;;;;;;;4.85;1.88;;;;;;;21.48;37.32;100182.06;5057103;28;20049;-77
2021/05/27 08:49:48;;;;;;;4.45;2.05;;;;;;;21.56;36.80;100180.25;5055564;28;20401;-74
2021/05/27 08:52:17;;;;;;;6.77;1.57;;;;;;;21.42;35.77;100183.56;5058742;28;20096;-74
2021/05/27 08:54:45;;;;;;;4.38;1.75;;;;;;;21.49;37.40;100184.63;5056686;28;20474;-74
2021/05/27 08:57:13;;;;;;;4.47;1.67;;;;;;;21.66;37.09;100178.22;5056366;28;20131;-74
2021/05/27 08:59:41;;;;;;;4.28;1.80;;;;;;;21.81;35.86;100180.28;5056039;28;20041;-80
2021/05/27 09:02:10;;;;;;;3.95;1.40;;;;;;;21.69;35.98;100180.59;5055848;28;20123;-79
2021/05/27 09:04:39;;;;;;;2.80;1.42;;;;;;;21.35;35.93;100183.38;5055370;28;20061;-79
2021/05/27 09:07:08;;;;;;;4.00;1.40;;;;;;;21.54;36.25;100178.72;5055454;28;20049;-74
2021/05/27 09:09:54;;;;;;;2.55;1.50;;;;;;;21.77;36.07;100176.22;5055199;28;20045;-78
2021/05/27 09:12:31;;;;;;;3.83;1.67;;;;;;;21.69;35.28;100172.47;5055874;28;20048;-77
2021/05/27 09:15:00;;;;;;;4.22;1.55;;;;;;;21.66;36.69;100174.66;5054012;28;20068;-77
2021/05/27 09:17:43;;;;;;;5.18;1.83;;;;;;;21.85;37.25;100173.53;5053618;28;20132;-76
2021/05/27 09:20:17;;;;;;;4.82;1.55;;;;;;;21.97;35.60;100174.91;5053683;28;20056;-74
2021/05/27 09:22:46;;;;;;;3.15;1.55;;;;;;;21.92;36.67;100169.13;5053732;28;20052;-76
2021/05/27 09:25:25;;;;;;;5.65;1.83;;;;;;;22.00;35.95;100166.41;5053782;28;20048;-74
2021/05/27 09:27:54;;;;;;;5.20;1.45;;;;;;;22.20;35.32;100162.41;5053408;28;20680;-74
2021/05/27 09:30:25;;;;;;;3.95;1.40;;;;;;;22.04;35.46;100156.06;5052789;28;20095;-74
2021/05/27 09:33:08;;;;;;;6.63;1.80;;;;;;;22.09;35.36;100153.72;5052660;28;20109;-74
2021/05/27 09:35:36;;;;;;;3.97;1.58;;;;;;;22.18;36.51;100159.00;5052970;28;20040;-74
2021/05/27 09:38:05;;;;;;;3.92;1.80;;;;;;;22.14;36.62;100157.63;5053247;28;20041;-73
2021/05/27 09:40:43;;;;;;;4.20;1.55;;;;;;;22.42;36.30;100162.75;5052946;28;20504;-74
2021/05/27 09:43:12;;;;;;;4.30;1.40;;;;;;;22.39;34.53;100160.34;5052880;28;20064;-73
2021/05/27 09:45:40;;;;;;;3.58;1.50;;;;;;;22.25;34.65;100157.31;5052690;28;20077;-73
2021/05/27 09:48:20;;;;;;;3.65;1.60;;;;;;;22.03;35.27;100166.09;5051878;28;20132;-73
2021/05/27 09:50:49;;;;;;;1.80;1.33;;;;;;;22.06;35.37;100152.16;5053087;28;20044;-73
2021/05/27 09:53:20;;;;;;;3.47;1.40;;;;;;;22.07;35.37;100156.59;5052943;28;20041;-72
2021/05/27 09:55:49;;;;;;;4.10;1.60;;;;;;;22.20;34.74;100156.13;5052864;28;20449;-74
2021/05/27 09:58:20;;;;;;;2.35;1.30;;;;;;;22.23;34.67;100151.19;5052860;28;20475;-83
2021/05/27 10:00:51;;;;;;;4.38;1.60;;;;;;;22.45;34.73;100154.22;5052665;28;20036;-78
2021/05/27 10:03:31;;;;;;;2.08;1.13;;;;;;;22.61;34.25;100145.22;5052757;28;20060;-78
2021/05/27 10:06:01;;;;;;;3.65;1.17;;;;;;;22.76;34.18;100157.91;5052742;28;20045;-75
2021/05/27 10:08:30;;;;;;;3.17;1.45;;;;;;;22.95;33.18;100166.75;5052792;28;20155;-77
2021/05/27 10:11:09;;;;;;;4.20;1.27;;;;;;;23.12;33.48;100163.81;5052709;28;20036;-76
2021/05/27 10:13:39;;;;;;;2.45;1.00;;;;;;;23.24;32.24;100160.69;5052671;28;20052;-76
2021/05/27 10:16:10;;;;;;;2.25;1.08;;;;;;;23.17;33.01;100166.03;5052356;28;20551;-73
2021/05/27 10:18:41;;;;;;;4.32;1.30;;;;;;;23.33;33.05;100157.78;5052350;28;20055;-75
2021/05/27 10:21:10;;;;;;;6.07;1.40;;;;;;;23.25;32.47;100152.34;5051611;28;20043;-75
2021/05/27 10:23:39;;;;;;;4.00;1.70;;;;;;;23.74;32.44;100152.16;5052377;28;20131;-76
2021/05/27 10:26:08;;;;;;;3.13;1.05;;;;;;;24.06;31.93;100144.78;5052672;28;20102;-76
2021/05/27 10:28:37;;;;;;;1.75;1.00;;;;;;;24.06;30.90;100142.91;5050922;28;20045;-75
2021/05/27 10:31:05;;;;;;;6.22;1.20;;;;;;;24.25;30.83;100145.13;5052356;28;20041;-76
2021/05/27 10:33:37;;;;;;;3.28;1.10;;;;;;;23.97;31.33;100141.28;5052017;28;20036;-76
2021/05/27 10:36:07;;;;;;;3.60;1.58;;;;;;;24.01;31.21;100141.75;5052692;28;20052;-74
2021/05/27 10:38:51;;;;;;;2.58;1.08;;;;;;;24.18;31.02;100138.72;5051949;28;20127;-75
2021/05/27 10:41:54;;;;;;;3.58;1.10;;;;;;;24.39;30.83;100139.94;5052207;28;20560;-75
2021/05/27 10:44:22;;;;;;;3.92;1.30;;;;;;;24.41;30.67;100138.72;5051793;28;20053;-76
2021/05/27 10:47:17;;;;;;;4.60;1.50;;;;;;;24.00;31.49;100140.91;5052221;28;20045;-76
2021/05/27 10:49:52;;;;;;;2.38;1.33;;;;;;;23.97;33.78;100142.13;5051785;28;20110;-78
2021/05/27 10:52:37;;;;;;;2.88;1.17;;;;;;;23.47;33.98;100136.28;5051851;28;20054;-75
2021/05/27 10:55:41;;;;;;;3.20;1.13;;;;;;;23.18;32.61;100129.63;5052117;28;20041;-72
2021/05/27 10:58:10;;;;;;;3.03;1.17;;;;;;;23.25;33.53;100125.16;5049946;28;20045;-75
2021/05/27 11:00:50;;;;;;;4.30;1.40;;;;;;;23.28;34.28;100129.41;5051706;28;20556;-78
2021/05/27 11:03:44;;;;;;;2.90;1.30;;;;;;;23.36;33.82;100119.34;5051507;28;20044;-77
2021/05/27 11:06:27;;;;;;;2.78;1.30;;;;;;;23.12;34.05;100124.88;5051730;28;20076;-75
2021/05/27 11:09:35;;;;;;;2.85;1.08;;;;;;;23.11;34.61;100125.91;5051644;28;20102;-75
2021/05/27 11:12:17;;;;;;;2.65;1.23;;;;;;;22.99;35.37;100121.88;5051752;28;20033;-77
2021/05/27 11:15:02;;;;;;;3.28;1.08;;;;;;;22.77;36.19;100121.53;5051727;28;20045;-75
2021/05/27 11:17:30;;;;;;;2.70;1.00;;;;;;;22.96;35.16;100125.78;5051451;28;20081;-74
2021/05/27 11:20:04;;;;;;;2.92;1.23;;;;;;;22.79;35.86;100135.84;5051743;28;20047;-74
2021/05/27 11:25:36;;;;;;;4.40;1.20;;;;;;;22.87;35.88;100120.53;5051973;28;20048;-76
2021/05/27 11:28:36;;;;;;;3.22;0.73;;;;;;;22.65;34.87;100117.50;5051813;28;20090;-74
2021/05/27 11:31:06;;;;;;;2.40;0.90;;;;;;;22.56;35.71;100119.38;5051600;28;20110;-79
2021/05/27 11:33:36;;;;;;;2.42;1.10;;;;;;;22.46;35.26;100120.59;5052148;28;20037;-77
2021/05/27 11:36:06;;;;;;;1.58;0.95;;;;;;;22.41;35.50;100110.25;5051328;28;20132;-76
2021/05/27 11:38:36;;;;;;;2.60;0.98;;;;;;;22.71;35.58;100110.53;5051525;28;20072;-75
2021/05/27 11:41:10;;;;;;;2.10;0.63;;;;;;;22.77;35.59;100110.66;5051596;28;20077;-77
2021/05/27 11:43:41;;;;;;;2.47;0.95;;;;;;;22.90;37.19;100112.03;5053692;28;20063;-76
2021/05/27 11:46:15;;;;;;;3.05;1.05;;;;;;;22.72;35.74;100112.22;5057497;28;20044;-78
2021/05/27 11:48:55;;;;;;;4.43;1.80;;;;;;;22.49;36.62;100117.56;5051524;28;20414;-77
2021/05/27 11:51:25;;;;;;;1.95;1.00;;;;;;;22.21;37.25;100115.22;5051142;28;20041;-75
2021/05/27 11:53:57;;;;;;;2.58;0.85;;;;;;;22.15;36.87;100120.47;5052570;28;20462;-76
2021/05/27 11:56:37;;;;;;;1.52;0.95;;;;;;;22.24;36.33;100109.41;5053839;28;20657;-75
2021/05/27 11:59:09;;;;;;;3.25;1.20;;;;;;;22.42;36.95;100105.69;5055341;28;20103;-76